createdAt,value
2019-01-10T00:02:58.697Z,5.22
2019-01-10T00:08:02.777Z,5.10
2019-01-10T00:13:06.821Z,5.03
2019-01-10T00:18:10.870Z,5.40
2019-01-10T00:23:15.206Z,5.33
2019-01-10T00:28:19.946Z,4.70
2019-01-10T00:33:24.026Z,5.00
2019-01-10T00:38:28.065Z,5.43
2019-01-10T00:43:32.109Z,5.13
2019-01-10T00:48:36.764Z,6.03
2019-01-10T00:53:41.221Z,5.37
2019-01-10T00:58:45.609Z,4.87
2019-01-10T01:03:49.979Z,5.17
2019-01-10T01:08:54.358Z,5.07
2019-01-10T01:13:58.739Z,5.03
2019-01-10T01:19:02.817Z,4.60
2019-01-10T01:24:07.139Z,5.33
2019-01-10T01:29:11.490Z,5.00
2019-01-10T01:34:15.827Z,5.20
2019-01-10T01:39:20.201Z,5.30
2019-01-10T01:44:24.575Z,4.80
2019-01-10T01:49:30.371Z,5.50
2019-01-10T01:54:34.716Z,5.03
2019-01-10T01:59:38.798Z,5.30
2019-01-10T02:04:43.432Z,4.90
2019-01-10T02:09:48.081Z,5.43
2019-01-10T02:14:52.463Z,5.33
2019-01-10T02:19:56.544Z,5.70
2019-01-10T02:25:00.711Z,5.13
2019-01-10T02:30:08.045Z,5.73
2019-01-10T02:35:12.720Z,6.10
2019-01-10T02:40:17.165Z,5.53
2019-01-10T02:45:21.535Z,5.43
2019-01-10T02:50:25.979Z,5.70
2019-01-10T02:55:30.686Z,6.00
2019-01-10T03:00:35.176Z,5.60
2019-01-10T03:05:39.255Z,5.70
2019-01-10T03:10:43.902Z,5.80
2019-01-10T03:15:47.989Z,8.10
2019-01-10T03:20:52.698Z,9.33
2019-01-10T03:25:57.185Z,6.33
2019-01-10T03:31:01.271Z,6.10
2019-01-10T03:36:05.737Z,6.75
2019-01-10T03:41:10.117Z,6.73
2019-01-10T03:46:14.534Z,6.50
2019-01-10T03:51:18.621Z,5.90
2019-01-10T03:56:22.661Z,6.40
2019-01-10T04:01:27.006Z,6.23
2019-01-10T04:06:31.094Z,6.27
2019-01-10T04:11:35.479Z,6.17
2019-01-10T04:16:39.811Z,6.23
2019-01-10T04:21:43.894Z,6.10
2019-01-10T04:26:48.641Z,6.00
2019-01-10T04:31:53.012Z,6.27
2019-01-10T04:36:57.097Z,5.80
2019-01-10T04:42:01.766Z,6.40
2019-01-10T04:47:05.866Z,6.53
2019-01-10T04:52:10.860Z,6.33
2019-01-10T04:57:15.235Z,6.20
2019-01-10T05:02:19.935Z,6.57
2019-01-10T05:07:24.293Z,6.37
2019-01-10T05:12:28.381Z,6.00
2019-01-10T05:17:32.717Z,5.78
2019-01-10T05:22:36.806Z,5.97
2019-01-10T05:27:41.143Z,5.97
2019-01-10T05:32:45.220Z,6.27
2019-01-10T05:37:49.268Z,5.43
2019-01-10T05:42:53.652Z,5.63
2019-01-10T05:47:57.975Z,6.83
2019-01-10T05:53:02.354Z,6.03
2019-01-10T05:58:06.444Z,5.67
2019-01-10T06:03:10.496Z,6.10
2019-01-10T06:08:15.167Z,6.10
2019-01-10T06:13:19.252Z,6.43
2019-01-10T06:18:23.298Z,6.57
2019-01-10T06:23:27.654Z,6.67
2019-01-10T06:28:31.694Z,6.20
2019-01-10T06:33:35.743Z,7.00
2019-01-10T06:38:40.099Z,6.63
2019-01-10T06:43:44.741Z,7.80
2019-01-10T06:48:49.112Z,7.33
2019-01-10T06:53:53.207Z,7.57
2019-01-10T06:58:57.590Z,6.92
2019-01-10T07:04:01.971Z,7.53
2019-01-10T07:09:08.931Z,7.40
2019-01-10T07:14:13.016Z,6.43
2019-01-10T07:19:23.679Z,6.73
2019-01-10T07:24:28.056Z,7.70
2019-01-10T07:29:32.138Z,7.87
2019-01-10T07:34:36.187Z,7.67
2019-01-10T07:39:40.867Z,7.67
2019-01-10T07:44:44.905Z,7.97
2019-01-10T07:49:49.190Z,7.77
2019-01-10T07:54:53.581Z,7.50
2019-01-10T07:59:57.669Z,7.57
2019-01-10T08:05:02.277Z,7.40
2019-01-10T08:10:10.312Z,8.20
2019-01-10T08:15:19.103Z,8.18
2019-01-10T08:20:23.190Z,8.27
2019-01-10T08:25:27.559Z,7.67
2019-01-10T08:30:31.997Z,8.33
2019-01-10T08:35:36.049Z,7.70
2019-01-10T08:40:40.098Z,8.87
2019-01-10T08:45:44.402Z,9.67
2019-01-10T08:50:48.458Z,7.75
2019-01-10T08:55:52.785Z,8.50
2019-01-10T09:00:56.890Z,8.07
2019-01-10T09:06:08.013Z,7.47
2019-01-10T09:11:07.099Z,8.07
2019-01-10T09:16:11.441Z,7.90
2019-01-10T09:21:16.030Z,8.00
2019-01-10T09:26:20.500Z,8.53
2019-01-10T09:31:24.573Z,7.93
2019-01-10T09:36:28.991Z,7.83
2019-01-10T09:41:33.105Z,7.83
2019-01-10T09:46:37.158Z,9.20
2019-01-10T09:51:41.491Z,9.67
2019-01-10T09:56:45.574Z,9.40
2019-01-10T10:01:49.621Z,9.60
2019-01-10T10:06:54.018Z,9.40
2019-01-10T10:11:58.435Z,10.97
2019-01-10T10:17:02.775Z,10.83
2019-01-10T10:22:06.932Z,10.20
2019-01-10T10:27:11.274Z,10.80
2019-01-10T10:32:15.360Z,10.50
2019-01-10T10:37:19.702Z,10.03
2019-01-10T10:42:24.102Z,9.27
2019-01-10T10:47:28.188Z,8.73
2019-01-10T10:52:32.230Z,8.70
2019-01-10T10:57:36.276Z,8.80
2019-01-10T11:02:40.641Z,8.23
2019-01-10T11:07:44.810Z,8.63
2019-01-10T11:12:49.090Z,7.73
2019-01-10T11:17:53.563Z,8.07
2019-01-10T11:22:57.650Z,8.07
2019-01-10T11:28:04.329Z,7.72
2019-01-10T11:33:08.475Z,8.37
2019-01-10T11:38:12.523Z,7.63
2019-01-10T11:43:17.149Z,6.97
2019-01-10T11:48:40.581Z,7.33
2019-01-10T11:53:44.912Z,7.20
2019-01-10T11:58:48.999Z,7.70
2019-01-10T12:03:53.351Z,7.63
2019-01-10T12:08:57.442Z,7.70
2019-01-10T12:14:01.807Z,7.28
2019-01-10T12:19:05.855Z,6.50
2019-01-10T12:24:10.195Z,7.50
2019-01-10T12:29:14.820Z,5.73
2019-01-10T12:34:19.454Z,5.53
2019-01-10T12:39:23.543Z,5.77
2019-01-10T12:44:29.569Z,5.90
2019-01-10T12:49:33.625Z,5.60
2019-01-10T12:54:37.670Z,5.07
2019-01-10T12:59:42.048Z,5.37
2019-01-10T13:04:46.435Z,6.53
2019-01-10T13:09:51.037Z,6.40
2019-01-10T13:14:56.559Z,7.63
2019-01-10T13:20:00.606Z,9.48
2019-01-10T13:25:07.056Z,10.17
2019-01-10T13:30:17.356Z,10.70
2019-01-10T13:35:21.465Z,9.30
2019-01-10T13:40:25.778Z,9.73
2019-01-10T13:45:30.112Z,9.90
2019-01-10T13:50:34.196Z,9.87
2019-01-10T13:55:38.671Z,11.40
2019-01-10T14:00:42.762Z,11.20
2019-01-10T14:05:46.815Z,11.30
2019-01-10T14:10:51.142Z,9.37
2019-01-10T14:15:55.574Z,8.60
2019-01-10T14:20:59.616Z,8.20
2019-01-10T14:26:04.020Z,9.23
2019-01-10T14:31:08.569Z,9.77
2019-01-10T14:36:12.726Z,9.50
2019-01-10T14:41:16.778Z,10.45
2019-01-10T14:46:21.111Z,10.47
2019-01-10T14:51:25.562Z,10.73
2019-01-10T14:56:30.027Z,10.47
2019-01-10T15:01:34.373Z,11.10
2019-01-10T15:06:38.755Z,10.93
2019-01-10T15:11:43.407Z,11.93
2019-01-10T15:16:48.050Z,12.00
2019-01-10T15:21:52.142Z,12.80
2019-01-10T15:26:56.450Z,13.07
2019-01-10T15:32:00.809Z,12.10
2019-01-10T15:37:04.875Z,12.07
2019-01-10T15:42:09.170Z,12.67
2019-01-10T15:47:16.751Z,12.70
2019-01-10T15:52:19.590Z,13.37
2019-01-10T15:57:23.943Z,13.33
2019-01-10T16:02:28.348Z,13.20
2019-01-10T16:07:32.452Z,13.50
2019-01-10T16:12:37.085Z,13.77
2019-01-10T16:17:41.943Z,15.00
2019-01-10T16:22:46.985Z,14.68
2019-01-10T16:27:51.319Z,14.50
2019-01-10T16:32:55.398Z,15.70
2019-01-10T16:37:59.789Z,15.23
2019-01-10T16:43:03.979Z,14.60
2019-01-10T16:48:08.061Z,14.97
2019-01-10T16:53:12.452Z,15.13
2019-01-10T16:58:16.887Z,14.57
2019-01-10T17:03:21.320Z,15.43
2019-01-10T17:08:25.469Z,14.60
2019-01-10T17:13:29.874Z,15.63
2019-01-10T17:18:34.317Z,14.97
2019-01-10T17:23:38.770Z,14.63
2019-01-10T17:28:42.857Z,15.47
2019-01-10T17:33:47.905Z,14.57
2019-01-10T17:38:51.985Z,15.00
2019-01-10T17:43:56.374Z,15.20
2019-01-10T17:49:00.521Z,13.23
2019-01-10T17:54:04.968Z,14.80
2019-01-10T17:59:11.849Z,14.67
2019-01-10T18:04:15.986Z,13.70
2019-01-10T18:09:20.343Z,13.83
2019-01-10T18:14:25.049Z,13.50
2019-01-10T18:19:29.611Z,12.90
2019-01-10T18:24:33.746Z,13.37
2019-01-10T18:29:37.840Z,13.15
2019-01-10T18:34:43.360Z,12.97
2019-01-10T18:39:47.966Z,12.83
2019-01-10T18:44:52.397Z,13.60
2019-01-10T18:49:56.814Z,14.23
2019-01-10T18:55:01.227Z,15.47
2019-01-10T19:00:16.271Z,17.20
2019-01-10T19:05:20.687Z,18.10
2019-01-10T19:10:24.837Z,18.80
2019-01-10T19:15:29.112Z,16.93
2019-01-10T19:20:33.214Z,17.83
2019-01-10T19:25:37.330Z,15.67
2019-01-10T19:30:41.744Z,16.60
2019-01-10T19:35:45.926Z,14.07
2019-01-10T19:40:50.295Z,13.13
2019-01-10T19:45:54.711Z,12.03
2019-01-10T19:50:59.221Z,11.47
2019-01-10T19:56:03.665Z,10.77
2019-01-10T20:01:08.321Z,11.90
2019-01-10T20:06:12.481Z,11.40
2019-01-10T20:11:16.891Z,10.97
2019-01-10T20:16:21.362Z,11.23
2019-01-10T20:21:26.000Z,10.43
2019-01-10T20:26:30.550Z,12.03
2019-01-10T20:31:34.677Z,11.70
2019-01-10T20:36:38.802Z,10.97
2019-01-10T20:41:43.154Z,11.07
2019-01-10T20:46:47.586Z,11.20
2019-01-10T20:51:51.666Z,11.27
2019-01-10T20:56:56.020Z,11.33
2019-01-10T21:02:00.419Z,12.27
2019-01-10T21:07:05.656Z,12.93
2019-01-10T21:12:10.092Z,11.60
2019-01-10T21:17:14.549Z,12.03
2019-01-10T21:22:18.930Z,11.57
2019-01-10T21:27:23.334Z,11.30
2019-01-10T21:32:27.725Z,12.40
2019-01-10T21:37:31.838Z,11.90
2019-01-10T21:42:36.178Z,11.57
2019-01-10T21:47:40.338Z,10.68
2019-01-10T21:52:45.098Z,11.70
2019-01-10T21:57:49.154Z,11.93
2019-01-10T22:02:54.139Z,12.30
2019-01-10T22:07:58.516Z,12.30
2019-01-10T22:13:02.896Z,12.57
2019-01-10T22:18:07.544Z,13.50
2019-01-10T22:23:11.936Z,13.50
2019-01-10T22:28:16.637Z,13.83
2019-01-10T22:33:21.073Z,14.13
2019-01-10T22:38:26.615Z,14.53
2019-01-10T22:43:30.978Z,14.90
2019-01-10T22:48:35.268Z,13.97
2019-01-10T22:53:39.317Z,15.13
2019-01-10T22:58:43.894Z,14.70
2019-01-10T23:03:48.277Z,14.63
2019-01-10T23:08:52.332Z,14.77
2019-01-10T23:13:57.986Z,15.70
2019-01-10T23:19:02.951Z,13.70
2019-01-10T23:24:07.789Z,14.73
2019-01-10T23:29:12.142Z,13.50
2019-01-10T23:34:16.588Z,15.27
2019-01-10T23:39:21.037Z,15.03
2019-01-10T23:44:25.130Z,15.72
2019-01-10T23:49:29.438Z,15.33
2019-01-10T23:54:33.484Z,15.60
2019-01-10T23:59:37.531Z,15.63
